createdAt,value
2019-02-20T00:02:07.353Z,15.00
2019-02-20T00:04:36.150Z,11.57
2019-02-20T00:07:04.951Z,13.80
2019-02-20T00:09:33.824Z,15.90
2019-02-20T00:12:02.799Z,14.80
2019-02-20T00:14:31.748Z,13.05
2019-02-20T00:17:00.542Z,14.03
2019-02-20T00:19:29.477Z,16.50
2019-02-20T00:21:58.265Z,15.17
2019-02-20T00:24:27.115Z,15.20
2019-02-20T00:26:55.900Z,16.52
2019-02-20T00:29:24.705Z,18.70
2019-02-20T00:31:53.582Z,19.87
2019-02-20T00:34:22.360Z,18.13
2019-02-20T00:36:51.167Z,19.97
2019-02-20T00:39:19.977Z,19.77
2019-02-20T00:41:48.781Z,19.60
2019-02-20T00:44:24.702Z,18.55
2019-02-20T00:47:14.613Z,14.23
2019-02-20T00:49:46.570Z,15.57
2019-02-20T00:52:25.415Z,15.30
2019-02-20T00:54:54.373Z,13.00
2019-02-20T00:57:23.266Z,15.00
2019-02-20T00:59:52.065Z,14.77
2019-02-20T01:02:20.937Z,15.73
2019-02-20T01:04:49.746Z,14.67
2019-02-20T01:07:18.547Z,14.90
2019-02-20T01:09:47.385Z,14.40
2019-02-20T01:12:16.194Z,13.90
2019-02-20T01:14:45.048Z,12.57
2019-02-20T01:17:13.913Z,13.03
2019-02-20T01:19:42.793Z,13.27
2019-02-20T01:22:11.597Z,14.90
2019-02-20T01:24:40.407Z,13.50
2019-02-20T01:27:09.274Z,13.57
2019-02-20T01:29:38.189Z,14.80
2019-02-20T01:32:06.973Z,13.07
2019-02-20T01:34:35.825Z,14.10
2019-02-20T01:37:04.704Z,13.17
2019-02-20T01:39:34.635Z,13.22
2019-02-20T01:42:03.428Z,13.77
2019-02-20T01:44:32.245Z,13.20
2019-02-20T01:47:01.063Z,11.90
2019-02-20T01:49:30.179Z,12.43
2019-02-20T01:51:58.967Z,14.30
2019-02-20T01:54:27.859Z,13.10
2019-02-20T01:56:57.266Z,11.73
2019-02-20T01:59:26.130Z,12.60
2019-02-20T02:01:54.921Z,13.53
2019-02-20T02:04:23.749Z,14.23
2019-02-20T02:06:52.641Z,15.98
2019-02-20T02:09:21.527Z,15.57
2019-02-20T02:11:50.400Z,18.43
2019-02-20T02:14:19.201Z,19.23
2019-02-20T02:16:48.007Z,18.67
2019-02-20T02:19:16.867Z,20.53
2019-02-20T02:21:45.666Z,16.63
2019-02-20T02:24:14.545Z,17.30
2019-02-20T02:26:43.439Z,16.05
2019-02-20T02:29:12.247Z,15.97
2019-02-20T02:31:41.134Z,15.90
2019-02-20T02:34:10.004Z,14.00
2019-02-20T02:36:38.881Z,15.48
2019-02-20T02:39:07.823Z,16.90
2019-02-20T02:41:36.717Z,13.77
2019-02-20T02:44:05.771Z,14.00
2019-02-20T02:46:34.662Z,16.43
2019-02-20T02:49:03.449Z,13.53
2019-02-20T02:51:32.438Z,13.95
2019-02-20T02:54:01.253Z,13.70
2019-02-20T02:56:30.059Z,13.97
2019-02-20T02:58:58.835Z,12.37
2019-02-20T03:01:27.625Z,14.23
2019-02-20T03:03:56.424Z,14.27
2019-02-20T03:06:25.301Z,15.20
2019-02-20T03:08:54.100Z,13.70
2019-02-20T03:11:23.002Z,14.03
2019-02-20T03:13:51.788Z,17.87
2019-02-20T03:16:20.583Z,18.30
2019-02-20T03:18:49.446Z,16.07
2019-02-20T03:21:18.366Z,13.60
2019-02-20T03:23:47.213Z,15.27
2019-02-20T03:26:16.069Z,15.43
2019-02-20T03:28:44.863Z,14.63
2019-02-20T03:31:13.673Z,16.00
2019-02-20T03:33:42.665Z,13.50
2019-02-20T03:36:11.648Z,13.33
2019-02-20T03:38:40.508Z,13.73
2019-02-20T03:41:09.390Z,15.43
2019-02-20T03:43:38.246Z,11.80
2019-02-20T03:46:07.124Z,12.90
2019-02-20T03:48:35.952Z,14.37
2019-02-20T03:51:04.842Z,12.97
2019-02-20T03:53:33.631Z,13.43
2019-02-20T03:56:02.559Z,13.43
2019-02-20T03:58:33.208Z,13.73
2019-02-20T04:01:02.116Z,15.50
2019-02-20T04:03:30.903Z,15.37
2019-02-20T04:05:59.709Z,15.70
2019-02-20T04:08:28.491Z,16.13
2019-02-20T04:10:57.289Z,14.90
2019-02-20T04:13:26.087Z,15.20
2019-02-20T04:15:54.948Z,15.10
2019-02-20T04:18:23.850Z,13.30
2019-02-20T04:20:52.678Z,14.38
2019-02-20T04:23:21.551Z,12.93
2019-02-20T04:25:50.354Z,15.20
2019-02-20T04:28:19.188Z,13.47
2019-02-20T04:30:47.960Z,14.15
2019-02-20T04:33:16.751Z,13.63
2019-02-20T04:35:45.564Z,12.43
2019-02-20T04:38:14.361Z,13.50
2019-02-20T04:40:43.153Z,14.43
2019-02-20T04:43:11.956Z,14.20
2019-02-20T04:45:40.764Z,14.17
2019-02-20T04:48:09.572Z,14.73
2019-02-20T04:50:38.450Z,14.50
2019-02-20T04:53:07.258Z,15.60
2019-02-20T04:55:36.069Z,15.40
2019-02-20T04:58:33.421Z,17.00
2019-02-20T05:01:02.227Z,15.55
2019-02-20T05:03:31.101Z,16.47
2019-02-20T05:05:59.993Z,16.27
2019-02-20T05:08:28.803Z,14.33
2019-02-20T05:10:57.607Z,16.63
2019-02-20T05:13:26.420Z,16.23
2019-02-20T05:15:55.227Z,13.77
2019-02-20T05:18:24.042Z,16.03
2019-02-20T05:20:52.888Z,13.40
2019-02-20T05:23:21.700Z,16.27
2019-02-20T05:25:50.578Z,14.60
2019-02-20T05:28:19.377Z,12.68
2019-02-20T05:30:48.227Z,15.28
2019-02-20T05:33:17.051Z,14.57
2019-02-20T05:35:45.860Z,13.30
2019-02-20T05:38:14.710Z,15.37
2019-02-20T05:40:43.471Z,15.13
2019-02-20T05:43:12.310Z,14.43
2019-02-20T05:45:41.181Z,13.83
2019-02-20T05:48:09.983Z,13.33
2019-02-20T05:50:39.670Z,15.65
2019-02-20T05:53:08.462Z,16.20
2019-02-20T05:55:37.261Z,17.10
2019-02-20T05:58:06.073Z,15.30
2019-02-20T06:00:34.875Z,14.40
2019-02-20T06:03:05.040Z,16.13
2019-02-20T06:05:34.157Z,16.83
2019-02-20T06:08:02.950Z,15.97
2019-02-20T06:10:31.946Z,15.37
2019-02-20T06:13:00.774Z,14.80
2019-02-20T06:15:29.559Z,12.97
2019-02-20T06:17:58.424Z,15.50
2019-02-20T06:20:27.292Z,12.83
2019-02-20T06:22:56.092Z,15.43
2019-02-20T06:25:24.888Z,16.80
2019-02-20T06:27:53.731Z,16.30
2019-02-20T06:30:22.522Z,18.07
2019-02-20T06:32:51.352Z,17.50
2019-02-20T06:35:20.252Z,17.20
2019-02-20T06:37:49.122Z,17.73
2019-02-20T06:40:18.015Z,17.40
2019-02-20T06:42:46.816Z,17.10
2019-02-20T06:45:15.630Z,20.20
2019-02-20T06:47:44.541Z,16.40
2019-02-20T06:50:13.547Z,18.27
2019-02-20T06:52:42.488Z,17.30
2019-02-20T06:55:12.543Z,17.87
2019-02-20T06:57:42.435Z,18.98
2019-02-20T07:00:12.031Z,21.35
2019-02-20T07:02:40.861Z,19.57
2019-02-20T07:05:50.362Z,18.93
2019-02-20T07:09:02.344Z,17.33
2019-02-20T07:11:54.729Z,18.37
2019-02-20T07:14:59.126Z,18.60
2019-02-20T07:18:21.146Z,18.53
2019-02-20T07:21:22.488Z,12.43
2019-02-20T07:24:27.202Z,17.17
2019-02-20T07:27:11.182Z,18.93
2019-02-20T07:30:01.035Z,17.90
2019-02-20T07:32:30.022Z,19.23
2019-02-20T07:34:58.941Z,21.33
2019-02-20T07:37:27.759Z,15.80
2019-02-20T07:39:57.346Z,16.80
2019-02-20T07:42:26.317Z,15.07
2019-02-20T07:44:55.135Z,14.93
2019-02-20T07:47:23.935Z,14.20
2019-02-20T07:49:52.816Z,15.70
2019-02-20T07:52:21.648Z,16.17
2019-02-20T07:54:50.583Z,17.40
2019-02-20T07:57:19.363Z,16.52
2019-02-20T07:59:48.313Z,17.60
2019-02-20T08:02:17.090Z,18.13
2019-02-20T08:04:46.060Z,18.00
2019-02-20T08:07:15.430Z,15.95
2019-02-20T08:09:44.413Z,15.47
2019-02-20T08:12:13.309Z,17.33
2019-02-20T08:14:42.110Z,17.50
2019-02-20T08:17:11.042Z,16.30
2019-02-20T08:19:39.823Z,15.80
2019-02-20T08:22:08.711Z,17.00
2019-02-20T08:24:37.573Z,15.43
2019-02-20T08:27:06.526Z,17.37
2019-02-20T08:29:35.322Z,17.65
2019-02-20T08:32:04.215Z,18.30
2019-02-20T08:34:33.042Z,18.67
2019-02-20T08:37:01.867Z,16.27
2019-02-20T08:39:32.043Z,17.67
2019-02-20T08:42:00.823Z,18.10
2019-02-20T08:44:29.700Z,17.13
2019-02-20T08:46:58.509Z,19.97
2019-02-20T08:49:27.303Z,16.60
2019-02-20T08:51:56.202Z,16.10
2019-02-20T08:54:25.075Z,16.83
2019-02-20T08:56:53.874Z,17.70
2019-02-20T08:59:22.667Z,16.70
2019-02-20T09:01:51.549Z,18.23
2019-02-20T09:04:20.480Z,17.80
2019-02-20T09:06:49.282Z,16.75
2019-02-20T09:09:18.135Z,16.80
2019-02-20T09:11:47.511Z,17.12
2019-02-20T09:14:16.372Z,17.62
2019-02-20T09:16:45.216Z,19.23
2019-02-20T09:19:14.005Z,16.57
2019-02-20T09:21:42.800Z,16.43
2019-02-20T09:24:11.584Z,17.20
2019-02-20T09:26:40.386Z,15.60
2019-02-20T09:29:09.285Z,16.30
2019-02-20T09:31:38.125Z,16.97
2019-02-20T09:34:06.921Z,16.75
2019-02-20T09:36:35.735Z,19.60
2019-02-20T09:39:36.793Z,15.53
2019-02-20T09:42:10.375Z,13.73
2019-02-20T09:44:49.305Z,17.05
2019-02-20T09:47:19.174Z,18.75
2019-02-20T09:49:48.445Z,14.28
2019-02-20T09:52:17.274Z,14.57
2019-02-20T09:54:46.440Z,14.17
2019-02-20T09:57:15.314Z,12.70
2019-02-20T09:59:44.092Z,16.20
2019-02-20T10:02:12.884Z,14.63
2019-02-20T10:04:41.663Z,12.40
2019-02-20T10:07:10.745Z,12.07
2019-02-20T10:09:39.542Z,14.37
2019-02-20T10:12:08.432Z,11.57
2019-02-20T10:14:37.235Z,11.70
2019-02-20T10:17:06.143Z,10.93
2019-02-20T10:19:34.926Z,11.03
2019-02-20T10:22:03.703Z,13.07
2019-02-20T10:24:32.563Z,12.47
2019-02-20T10:27:01.345Z,12.40
2019-02-20T10:29:30.143Z,11.00
2019-02-20T10:31:58.930Z,12.53
2019-02-20T10:34:27.721Z,9.67
2019-02-20T10:36:56.506Z,11.57
2019-02-20T10:39:25.334Z,11.60
2019-02-20T10:41:54.108Z,9.50
2019-02-20T10:44:22.904Z,10.10
2019-02-20T10:46:51.697Z,9.80
2019-02-20T10:49:20.480Z,9.00
2019-02-20T10:51:49.908Z,12.13
2019-02-20T10:54:18.695Z,9.03
2019-02-20T10:56:47.470Z,10.37
2019-02-20T10:59:16.536Z,9.87
2019-02-20T11:01:45.440Z,9.80
2019-02-20T11:04:14.307Z,9.50
2019-02-20T11:06:43.109Z,9.18
2019-02-20T11:09:12.079Z,8.10
2019-02-20T11:11:40.850Z,7.70
2019-02-20T11:14:09.661Z,9.00
2019-02-20T11:16:38.430Z,8.93
2019-02-20T11:19:07.295Z,9.93
2019-02-20T11:21:36.085Z,8.77
2019-02-20T11:24:05.015Z,8.77
2019-02-20T11:26:43.273Z,6.87
2019-02-20T11:29:04.468Z,7.50
2019-02-20T11:31:33.321Z,7.30
2019-02-20T11:34:02.892Z,6.50
2019-02-20T11:36:31.758Z,7.47
2019-02-20T11:39:00.632Z,7.10
2019-02-20T11:41:29.478Z,6.23
2019-02-20T11:43:58.262Z,6.27
2019-02-20T11:46:27.119Z,6.03
2019-02-20T11:48:55.938Z,5.15
2019-02-20T11:51:24.714Z,5.63
2019-02-20T11:53:53.600Z,5.77
2019-02-20T11:56:26.566Z,6.50
2019-02-20T11:58:52.920Z,6.00
2019-02-20T12:01:21.748Z,6.97
2019-02-20T12:03:50.623Z,6.30
2019-02-20T12:06:19.772Z,4.70
2019-02-20T12:08:48.605Z,4.80
2019-02-20T12:11:18.586Z,4.03
2019-02-20T12:13:47.489Z,5.93
2019-02-20T12:16:16.404Z,6.70
2019-02-20T12:18:48.414Z,8.50
2019-02-20T12:21:18.075Z,6.27
2019-02-20T12:23:47.051Z,6.20
2019-02-20T12:26:16.026Z,6.63
2019-02-20T12:28:44.808Z,7.37
2019-02-20T12:31:13.666Z,5.70
2019-02-20T12:33:42.444Z,5.78
2019-02-20T12:36:11.301Z,6.13
2019-02-20T12:38:40.081Z,5.17
2019-02-20T12:41:08.878Z,6.17
2019-02-20T12:43:37.662Z,6.40
2019-02-20T12:46:06.601Z,6.03
2019-02-20T12:48:35.406Z,5.77
2019-02-20T12:51:04.350Z,6.33
2019-02-20T12:53:33.138Z,5.05
2019-02-20T12:56:09.673Z,7.20
2019-02-20T12:58:32.457Z,5.60
2019-02-20T13:01:01.258Z,7.13
2019-02-20T13:03:30.063Z,8.17
2019-02-20T13:05:58.923Z,5.60
2019-02-20T13:08:28.099Z,4.25
2019-02-20T13:10:57.276Z,5.60
2019-02-20T13:13:26.402Z,4.47
2019-02-20T13:15:55.584Z,4.77
2019-02-20T13:18:24.374Z,3.20
2019-02-20T13:20:54.195Z,3.55
2019-02-20T13:23:23.093Z,3.10
2019-02-20T13:25:51.977Z,4.50
2019-02-20T13:28:23.238Z,5.17
2019-02-20T13:30:52.019Z,4.47
2019-02-20T13:33:20.803Z,3.77
2019-02-20T13:35:49.592Z,4.40
2019-02-20T13:38:18.374Z,4.17
2019-02-20T13:40:47.175Z,4.40
2019-02-20T13:43:15.954Z,4.30
2019-02-20T13:45:45.235Z,4.17
2019-02-20T13:48:14.071Z,5.10
2019-02-20T13:50:42.859Z,5.22
2019-02-20T13:53:11.709Z,4.03
2019-02-20T13:55:42.376Z,4.27
2019-02-20T13:58:11.736Z,4.33
2019-02-20T14:00:40.652Z,4.50
2019-02-20T14:03:09.431Z,3.47
2019-02-20T14:05:38.227Z,4.20
2019-02-20T14:08:07.069Z,4.70
2019-02-20T14:10:35.877Z,4.33
2019-02-20T14:13:04.658Z,3.57
2019-02-20T14:15:33.453Z,3.93
2019-02-20T14:18:02.517Z,3.60
2019-02-20T14:20:31.454Z,3.90
2019-02-20T14:23:00.345Z,3.80
2019-02-20T14:25:29.359Z,4.80
2019-02-20T14:27:58.208Z,3.30
2019-02-20T14:30:27.088Z,4.57
2019-02-20T14:32:56.304Z,4.37
2019-02-20T14:35:25.094Z,4.30
2019-02-20T14:37:53.882Z,4.13
2019-02-20T14:40:22.686Z,4.13
2019-02-20T14:42:53.289Z,3.75
2019-02-20T14:45:25.206Z,3.60
2019-02-20T14:47:54.007Z,3.00
2019-02-20T14:50:23.052Z,3.43
2019-02-20T14:52:51.873Z,4.72
2019-02-20T14:55:20.714Z,3.47
2019-02-20T14:57:51.038Z,4.27
2019-02-20T15:00:20.351Z,3.73
2019-02-20T15:02:49.116Z,3.67
2019-02-20T15:05:18.423Z,3.17
2019-02-20T15:07:47.205Z,3.93
2019-02-20T15:10:16.058Z,6.60
2019-02-20T15:12:46.638Z,12.60
2019-02-20T15:15:15.690Z,4.53
2019-02-20T15:17:44.565Z,4.07
2019-02-20T15:20:13.607Z,4.70
2019-02-20T15:22:42.468Z,4.57
2019-02-20T15:25:11.410Z,3.80
2019-02-20T15:27:40.279Z,4.63
2019-02-20T15:30:12.367Z,3.90
2019-02-20T15:32:41.612Z,4.37
2019-02-20T15:35:10.660Z,4.00
2019-02-20T15:37:39.602Z,3.98
2019-02-20T15:40:09.088Z,3.97
2019-02-20T15:42:37.970Z,4.20
2019-02-20T15:45:07.134Z,4.60
2019-02-20T15:47:35.965Z,4.53
2019-02-20T15:50:05.862Z,4.80
2019-02-20T15:52:35.115Z,6.00
2019-02-20T15:55:04.488Z,4.92
2019-02-20T15:57:38.085Z,4.00
2019-02-20T16:00:04.470Z,3.87
2019-02-20T16:02:33.418Z,4.85
2019-02-20T16:05:02.279Z,4.60
2019-02-20T16:07:31.363Z,4.50
2019-02-20T16:10:00.209Z,4.40
2019-02-20T16:12:29.856Z,4.97
2019-02-20T16:14:58.651Z,4.13
2019-02-20T16:17:27.507Z,4.97
2019-02-20T16:19:56.460Z,4.87
2019-02-20T16:22:25.256Z,5.00
2019-02-20T16:24:54.394Z,4.60
2019-02-20T16:27:23.266Z,4.50
2019-02-20T16:29:52.200Z,4.70
2019-02-20T16:32:20.984Z,5.33
2019-02-20T16:34:49.873Z,5.27
2019-02-20T16:37:18.734Z,4.00
2019-02-20T16:39:47.890Z,6.00
2019-02-20T16:42:16.680Z,4.28
2019-02-20T16:44:45.780Z,5.57
2019-02-20T16:47:14.650Z,5.23
2019-02-20T16:49:43.430Z,5.33
2019-02-20T16:52:12.397Z,4.60
2019-02-20T16:54:41.312Z,5.80
2019-02-20T16:57:10.364Z,5.65
2019-02-20T16:59:39.153Z,5.73
2019-02-20T17:02:08.998Z,5.67
2019-02-20T17:04:39.505Z,4.47
2019-02-20T17:07:08.466Z,5.03
2019-02-20T17:09:37.287Z,9.10
2019-02-20T17:12:06.404Z,4.85
2019-02-20T17:14:36.547Z,4.90
2019-02-20T17:17:05.597Z,4.60
2019-02-20T17:19:34.370Z,5.07
2019-02-20T17:22:03.404Z,4.97
2019-02-20T17:24:33.422Z,6.40
2019-02-20T17:27:02.819Z,19.48
2019-02-20T17:29:31.741Z,32.83
2019-02-20T17:32:00.537Z,76.47
2019-02-20T17:34:29.321Z,67.90
2019-02-20T17:36:58.279Z,50.73
2019-02-20T17:39:27.216Z,42.00
2019-02-20T17:41:56.008Z,32.07
2019-02-20T17:44:24.803Z,39.37
2019-02-20T17:46:53.588Z,41.30
2019-02-20T17:49:22.457Z,18.10
2019-02-20T17:51:51.312Z,10.30
2019-02-20T17:54:20.177Z,8.93
2019-02-20T17:56:49.030Z,8.63
2019-02-20T17:59:17.829Z,7.90
2019-02-20T18:01:46.790Z,7.93
2019-02-20T18:04:15.629Z,8.70
2019-02-20T18:06:44.408Z,10.40
2019-02-20T18:09:13.683Z,10.13
2019-02-20T18:11:42.542Z,8.00
2019-02-20T18:14:11.415Z,8.60
2019-02-20T18:16:40.272Z,9.60
2019-02-20T18:19:09.087Z,11.03
2019-02-20T18:21:37.954Z,9.43
2019-02-20T18:24:06.893Z,9.67
2019-02-20T18:26:35.688Z,11.10
2019-02-20T18:29:04.987Z,9.95
2019-02-20T18:31:33.845Z,9.60
2019-02-20T18:34:03.002Z,11.70
2019-02-20T18:36:31.794Z,11.00
2019-02-20T18:39:00.590Z,11.30
2019-02-20T18:41:29.372Z,11.38
2019-02-20T18:43:58.189Z,13.57
2019-02-20T18:46:26.977Z,12.10
2019-02-20T18:48:55.840Z,11.90
2019-02-20T18:51:24.699Z,11.93
2019-02-20T18:53:53.577Z,10.97
2019-02-20T18:56:22.461Z,12.07
2019-02-20T18:58:51.226Z,10.40
2019-02-20T19:01:20.026Z,9.60
2019-02-20T19:03:48.829Z,12.07
2019-02-20T19:06:17.767Z,12.00
2019-02-20T19:08:52.132Z,12.37
2019-02-20T19:11:34.202Z,12.37
2019-02-20T19:14:20.507Z,13.53
2019-02-20T19:17:19.664Z,19.13
2019-02-20T19:20:35.026Z,15.07
2019-02-20T19:23:39.769Z,11.90
2019-02-20T19:26:38.645Z,11.50
2019-02-20T19:29:41.017Z,11.90
2019-02-20T19:32:46.811Z,12.97
2019-02-20T19:35:39.995Z,13.83
2019-02-20T19:38:56.099Z,13.27
2019-02-20T19:41:41.698Z,11.20
2019-02-20T19:44:31.872Z,11.10
2019-02-20T19:47:29.594Z,11.00
2019-02-20T19:50:46.188Z,9.70
2019-02-20T19:53:51.541Z,11.03
2019-02-20T19:56:34.625Z,10.05
2019-02-20T19:59:32.735Z,15.27
2019-02-20T20:02:40.611Z,14.70
2019-02-20T20:06:08.934Z,14.97
2019-02-20T20:08:46.424Z,17.37
2019-02-20T20:11:29.224Z,20.53
2019-02-20T20:14:36.426Z,16.90
2019-02-20T20:17:36.328Z,12.90
2019-02-20T20:20:35.155Z,14.73
2019-02-20T20:23:11.790Z,14.33
2019-02-20T20:26:00.168Z,11.48
2019-02-20T20:28:47.453Z,12.77
2019-02-20T20:31:42.297Z,10.60
2019-02-20T20:35:04.635Z,11.70
2019-02-20T20:37:53.948Z,12.23
2019-02-20T20:40:51.915Z,10.63
2019-02-20T20:43:46.421Z,10.83
2019-02-20T20:46:40.962Z,11.07
2019-02-20T20:50:12.859Z,13.45
2019-02-20T20:53:10.799Z,14.03
2019-02-20T20:56:20.975Z,14.17
2019-02-20T20:59:26.034Z,13.35
2019-02-20T21:02:17.263Z,12.87
2019-02-20T21:05:08.481Z,14.07
2019-02-20T21:08:22.023Z,13.85
2019-02-20T21:11:21.556Z,12.50
2019-02-20T21:14:24.248Z,12.70
2019-02-20T21:17:25.538Z,11.97
2019-02-20T21:20:53.820Z,12.77
2019-02-20T21:24:03.471Z,13.13
2019-02-20T21:27:00.273Z,13.90
2019-02-20T21:30:15.060Z,13.67
2019-02-20T21:33:16.539Z,13.63
2019-02-20T21:36:15.410Z,13.28
2019-02-20T21:39:30.595Z,15.57
2019-02-20T21:42:31.453Z,15.20
2019-02-20T21:45:17.475Z,14.27
2019-02-20T21:48:15.325Z,17.30
2019-02-20T21:50:50.816Z,16.80
2019-02-20T21:53:49.698Z,16.10
2019-02-20T21:56:27.018Z,16.17
2019-02-20T22:03:11.249Z,16.70
2019-02-20T22:06:09.803Z,14.80
2019-02-20T22:09:20.297Z,17.57
2019-02-20T22:12:50.518Z,16.15
2019-02-20T22:15:49.920Z,16.73
2019-02-20T22:19:03.089Z,16.30
2019-02-20T22:22:19.634Z,14.23
2019-02-20T22:25:31.941Z,14.13
2019-02-20T22:28:24.106Z,14.37
2019-02-20T22:31:14.273Z,14.50
2019-02-20T22:34:05.021Z,14.63
2019-02-20T22:37:04.410Z,14.27
2019-02-20T22:40:20.046Z,14.30
2019-02-20T22:43:45.437Z,15.07
2019-02-20T22:46:42.550Z,16.27
2019-02-20T22:49:23.505Z,14.03
2019-02-20T22:52:23.148Z,13.43
2019-02-20T22:55:16.529Z,15.80
2019-02-20T22:58:02.324Z,15.43
2019-02-20T23:01:07.097Z,14.00
2019-02-20T23:04:09.598Z,14.77
2019-02-20T23:07:00.921Z,15.20
2019-02-20T23:10:01.639Z,13.20
2019-02-20T23:12:44.869Z,13.70
2019-02-20T23:15:13.753Z,13.28
2019-02-20T23:17:42.645Z,15.37
2019-02-20T23:20:11.506Z,15.20
2019-02-20T23:22:40.304Z,14.50
2019-02-20T23:25:09.193Z,17.40
2019-02-20T23:27:38.047Z,14.70
2019-02-20T23:30:12.870Z,17.17
2019-02-20T23:32:38.895Z,17.13
2019-02-20T23:35:08.265Z,17.20
2019-02-20T23:37:37.124Z,14.13
2019-02-20T23:40:06.714Z,14.27
2019-02-20T23:42:35.668Z,16.00
2019-02-20T23:45:05.100Z,12.43
2019-02-20T23:47:33.888Z,13.10
2019-02-20T23:50:02.685Z,15.08
2019-02-20T23:52:31.549Z,13.45
2019-02-20T23:55:00.502Z,13.93
2019-02-20T23:57:29.428Z,13.90
2019-02-20T23:59:58.246Z,15.30
